sensor_id;sensor_type;location;lat;lon;timestamp;temperature;humidity
16955;DHT22;8594;52.052;8.354;2023-04-03T00:00:08;5.20;99.90
16955;DHT22;8594;52.052;8.354;2023-04-03T00:02:36;5.10;99.90
16955;DHT22;8594;52.052;8.354;2023-04-03T00:05:03;5.10;99.90
16955;DHT22;8594;52.052;8.354;2023-04-03T00:07:30;5.10;99.90
16955;DHT22;8594;52.052;8.354;2023-04-03T00:09:57;4.90;99.90
16955;DHT22;8594;52.052;8.354;2023-04-03T00:12:24;4.70;99.90
16955;DHT22;8594;52.052;8.354;2023-04-03T00:14:51;4.70;99.90
16955;DHT22;8594;52.052;8.354;2023-04-03T00:17:19;4.70;99.90
16955;DHT22;8594;52.052;8.354;2023-04-03T00:19:46;4.70;99.90
16955;DHT22;8594;52.052;8.354;2023-04-03T00:22:13;4.70;99.90
16955;DHT22;8594;52.052;8.354;2023-04-03T00:24:40;4.60;99.90
16955;DHT22;8594;52.052;8.354;2023-04-03T00:27:07;4.60;99.90
16955;DHT22;8594;52.052;8.354;2023-04-03T00:29:34;4.50;99.90
16955;DHT22;8594;52.052;8.354;2023-04-03T00:32:01;4.40;99.90
16955;DHT22;8594;52.052;8.354;2023-04-03T00:34:29;4.40;99.90
16955;DHT22;8594;52.052;8.354;2023-04-03T00:36:57;4.10;99.90
16955;DHT22;8594;52.052;8.354;2023-04-03T00:39:24;4.00;99.90
16955;DHT22;8594;52.052;8.354;2023-04-03T00:41:50;4.00;99.90
16955;DHT22;8594;52.052;8.354;2023-04-03T00:44:22;4.00;99.90
16955;DHT22;8594;52.052;8.354;2023-04-03T00:47:11;4.10;99.90
16955;DHT22;8594;52.052;8.354;2023-04-03T00:49:41;4.10;99.90
16955;DHT22;8594;52.052;8.354;2023-04-03T00:52:12;4.00;99.90
16955;DHT22;8594;52.052;8.354;2023-04-03T00:54:43;3.90;99.90
16955;DHT22;8594;52.052;8.354;2023-04-03T00:57:14;3.90;99.90
16955;DHT22;8594;52.052;8.354;2023-04-03T00:59:44;3.70;99.90
16955;DHT22;8594;52.052;8.354;2023-04-03T01:02:15;3.60;99.90
16955;DHT22;8594;52.052;8.354;2023-04-03T01:04:44;3.60;99.90
16955;DHT22;8594;52.052;8.354;2023-04-03T01:07:15;3.50;99.90
16955;DHT22;8594;52.052;8.354;2023-04-03T01:09:45;3.50;99.90
16955;DHT22;8594;52.052;8.354;2023-04-03T01:12:15;3.40;99.90
16955;DHT22;8594;52.052;8.354;2023-04-03T01:14:44;3.30;99.90
16955;DHT22;8594;52.052;8.354;2023-04-03T01:17:27;3.40;99.90
16955;DHT22;8594;52.052;8.354;2023-04-03T01:23:25;3.30;99.90
16955;DHT22;8594;52.052;8.354;2023-04-03T01:25:57;3.20;99.90
16955;DHT22;8594;52.052;8.354;2023-04-03T01:28:27;3.20;99.90
16955;DHT22;8594;52.052;8.354;2023-04-03T01:31:00;3.20;99.90
16955;DHT22;8594;52.052;8.354;2023-04-03T01:33:34;3.20;99.90
16955;DHT22;8594;52.052;8.354;2023-04-03T01:36:01;3.20;99.90
16955;DHT22;8594;52.052;8.354;2023-04-03T01:38:28;3.10;99.90
16955;DHT22;8594;52.052;8.354;2023-04-03T01:40:55;3.10;99.90
16955;DHT22;8594;52.052;8.354;2023-04-03T01:43:21;3.00;99.90
16955;DHT22;8594;52.052;8.354;2023-04-03T01:45:49;3.00;99.90
16955;DHT22;8594;52.052;8.354;2023-04-03T01:48:17;3.00;99.90
16955;DHT22;8594;52.052;8.354;2023-04-03T01:50:46;3.10;99.90
16955;DHT22;8594;52.052;8.354;2023-04-03T01:53:13;3.00;99.90
16955;DHT22;8594;52.052;8.354;2023-04-03T01:55:40;3.10;99.90
16955;DHT22;8594;52.052;8.354;2023-04-03T01:58:07;3.10;99.90
16955;DHT22;8594;52.052;8.354;2023-04-03T02:00:34;3.20;99.90
16955;DHT22;8594;52.052;8.354;2023-04-03T02:03:01;3.10;99.90
16955;DHT22;8594;52.052;8.354;2023-04-03T02:05:28;3.10;99.90
16955;DHT22;8594;52.052;8.354;2023-04-03T02:07:57;3.00;99.90
16955;DHT22;8594;52.052;8.354;2023-04-03T02:10:25;2.90;99.90
16955;DHT22;8594;52.052;8.354;2023-04-03T02:12:52;2.90;99.90
16955;DHT22;8594;52.052;8.354;2023-04-03T02:15:19;2.80;99.90
16955;DHT22;8594;52.052;8.354;2023-04-03T02:17:46;2.80;99.90
16955;DHT22;8594;52.052;8.354;2023-04-03T02:20:13;2.70;99.90
16955;DHT22;8594;52.052;8.354;2023-04-03T02:22:40;2.70;99.90
16955;DHT22;8594;52.052;8.354;2023-04-03T02:25:08;2.70;99.90
16955;DHT22;8594;52.052;8.354;2023-04-03T02:27:36;2.60;99.90
16955;DHT22;8594;52.052;8.354;2023-04-03T02:30:03;2.60;99.90
16955;DHT22;8594;52.052;8.354;2023-04-03T02:32:32;2.50;99.90
16955;DHT22;8594;52.052;8.354;2023-04-03T02:34:59;2.50;99.90
16955;DHT22;8594;52.052;8.354;2023-04-03T02:37:25;2.50;99.90
16955;DHT22;8594;52.052;8.354;2023-04-03T02:39:52;2.50;99.90
16955;DHT22;8594;52.052;8.354;2023-04-03T02:42:20;2.40;99.90
16955;DHT22;8594;52.052;8.354;2023-04-03T02:44:47;2.40;99.90
16955;DHT22;8594;52.052;8.354;2023-04-03T02:47:14;2.40;99.90
16955;DHT22;8594;52.052;8.354;2023-04-03T02:49:41;2.30;99.90
16955;DHT22;8594;52.052;8.354;2023-04-03T02:52:10;2.40;99.90
16955;DHT22;8594;52.052;8.354;2023-04-03T02:54:37;2.40;99.90
16955;DHT22;8594;52.052;8.354;2023-04-03T02:57:04;2.40;99.90
16955;DHT22;8594;52.052;8.354;2023-04-03T02:59:32;2.40;99.90
16955;DHT22;8594;52.052;8.354;2023-04-03T03:01:59;2.30;99.90
16955;DHT22;8594;52.052;8.354;2023-04-03T03:04:26;2.40;99.90
16955;DHT22;8594;52.052;8.354;2023-04-03T03:06:53;2.40;99.90
16955;DHT22;8594;52.052;8.354;2023-04-03T03:09:20;2.40;99.90
16955;DHT22;8594;52.052;8.354;2023-04-03T03:11:47;2.40;99.90
16955;DHT22;8594;52.052;8.354;2023-04-03T03:14:14;2.40;99.90
16955;DHT22;8594;52.052;8.354;2023-04-03T03:16:42;2.40;99.90
16955;DHT22;8594;52.052;8.354;2023-04-03T03:19:10;2.30;99.90
16955;DHT22;8594;52.052;8.354;2023-04-03T03:21:37;2.30;99.90
16955;DHT22;8594;52.052;8.354;2023-04-03T03:24:04;2.30;99.90
16955;DHT22;8594;52.052;8.354;2023-04-03T03:26:31;2.30;99.90
16955;DHT22;8594;52.052;8.354;2023-04-03T03:28:58;2.10;99.90
16955;DHT22;8594;52.052;8.354;2023-04-03T03:31:25;2.10;99.90
16955;DHT22;8594;52.052;8.354;2023-04-03T03:33:53;2.10;99.90
16955;DHT22;8594;52.052;8.354;2023-04-03T03:36:21;2.20;99.90
16955;DHT22;8594;52.052;8.354;2023-04-03T03:38:47;2.20;99.90
16955;DHT22;8594;52.052;8.354;2023-04-03T03:41:14;2.20;99.90
16955;DHT22;8594;52.052;8.354;2023-04-03T03:43:41;2.10;99.90
16955;DHT22;8594;52.052;8.354;2023-04-03T03:46:08;2.00;99.90
16955;DHT22;8594;52.052;8.354;2023-04-03T03:48:35;2.00;99.90
16955;DHT22;8594;52.052;8.354;2023-04-03T03:51:03;2.00;99.90
16955;DHT22;8594;52.052;8.354;2023-04-03T03:53:30;2.10;99.90
16955;DHT22;8594;52.052;8.354;2023-04-03T03:55:57;2.10;99.90
16955;DHT22;8594;52.052;8.354;2023-04-03T03:58:24;2.20;99.90
16955;DHT22;8594;52.052;8.354;2023-04-03T04:00:51;2.20;99.90
16955;DHT22;8594;52.052;8.354;2023-04-03T04:03:18;2.20;99.90
16955;DHT22;8594;52.052;8.354;2023-04-03T04:05:46;2.30;99.90
16955;DHT22;8594;52.052;8.354;2023-04-03T04:08:14;2.30;99.90
16955;DHT22;8594;52.052;8.354;2023-04-03T04:10:41;2.20;99.90
16955;DHT22;8594;52.052;8.354;2023-04-03T04:13:08;2.30;99.90
16955;DHT22;8594;52.052;8.354;2023-04-03T04:15:35;2.40;99.90
16955;DHT22;8594;52.052;8.354;2023-04-03T04:18:01;2.40;99.90
16955;DHT22;8594;52.052;8.354;2023-04-03T04:20:28;2.40;99.90
16955;DHT22;8594;52.052;8.354;2023-04-03T04:22:55;2.30;99.90
16955;DHT22;8594;52.052;8.354;2023-04-03T04:25:23;2.10;99.90
16955;DHT22;8594;52.052;8.354;2023-04-03T04:27:51;2.10;99.90
16955;DHT22;8594;52.052;8.354;2023-04-03T04:30:18;2.00;99.90
16955;DHT22;8594;52.052;8.354;2023-04-03T04:32:45;1.90;99.90
16955;DHT22;8594;52.052;8.354;2023-04-03T04:35:12;1.90;99.90
16955;DHT22;8594;52.052;8.354;2023-04-03T04:37:39;2.00;99.90
16955;DHT22;8594;52.052;8.354;2023-04-03T04:40:07;2.00;99.90
16955;DHT22;8594;52.052;8.354;2023-04-03T04:42:35;1.90;99.90
16955;DHT22;8594;52.052;8.354;2023-04-03T04:45:03;1.80;99.90
16955;DHT22;8594;52.052;8.354;2023-04-03T04:47:30;1.70;99.90
16955;DHT22;8594;52.052;8.354;2023-04-03T04:49:57;1.70;99.90
16955;DHT22;8594;52.052;8.354;2023-04-03T04:52:24;1.70;99.90
16955;DHT22;8594;52.052;8.354;2023-04-03T04:54:50;1.80;99.90
16955;DHT22;8594;52.052;8.354;2023-04-03T04:57:17;1.70;99.90
16955;DHT22;8594;52.052;8.354;2023-04-03T04:59:45;1.80;99.90
16955;DHT22;8594;52.052;8.354;2023-04-03T05:02:12;1.80;99.90
16955;DHT22;8594;52.052;8.354;2023-04-03T05:04:39;1.90;99.90
16955;DHT22;8594;52.052;8.354;2023-04-03T05:07:06;1.80;99.90
16955;DHT22;8594;52.052;8.354;2023-04-03T05:09:33;1.80;99.90
16955;DHT22;8594;52.052;8.354;2023-04-03T05:12:00;1.70;99.90
16955;DHT22;8594;52.052;8.354;2023-04-03T05:14:28;1.70;99.90
16955;DHT22;8594;52.052;8.354;2023-04-03T05:16:56;1.60;99.90
16955;DHT22;8594;52.052;8.354;2023-04-03T05:19:23;1.50;99.90
16955;DHT22;8594;52.052;8.354;2023-04-03T05:21:50;1.50;99.90
16955;DHT22;8594;52.052;8.354;2023-04-03T05:24:17;1.60;99.90
16955;DHT22;8594;52.052;8.354;2023-04-03T05:26:44;1.60;99.90
16955;DHT22;8594;52.052;8.354;2023-04-03T05:29:11;1.50;99.90
16955;DHT22;8594;52.052;8.354;2023-04-03T05:31:38;1.50;99.90
16955;DHT22;8594;52.052;8.354;2023-04-03T05:34:06;1.50;99.90
16955;DHT22;8594;52.052;8.354;2023-04-03T05:36:33;1.40;99.90
16955;DHT22;8594;52.052;8.354;2023-04-03T05:39:00;1.30;99.90
16955;DHT22;8594;52.052;8.354;2023-04-03T05:41:27;1.40;99.90
16955;DHT22;8594;52.052;8.354;2023-04-03T05:43:54;1.50;99.90
16955;DHT22;8594;52.052;8.354;2023-04-03T05:46:21;1.50;99.90
16955;DHT22;8594;52.052;8.354;2023-04-03T05:48:48;1.60;99.90
16955;DHT22;8594;52.052;8.354;2023-04-03T05:51:18;1.50;99.90
16955;DHT22;8594;52.052;8.354;2023-04-03T05:53:47;1.30;99.90
16955;DHT22;8594;52.052;8.354;2023-04-03T05:56:16;1.60;99.90
16955;DHT22;8594;52.052;8.354;2023-04-03T05:58:43;1.60;99.90
16955;DHT22;8594;52.052;8.354;2023-04-03T06:01:10;1.80;99.90
16955;DHT22;8594;52.052;8.354;2023-04-03T06:03:37;1.80;99.90
16955;DHT22;8594;52.052;8.354;2023-04-03T06:06:05;1.90;99.90
16955;DHT22;8594;52.052;8.354;2023-04-03T06:08:34;1.90;99.90
16955;DHT22;8594;52.052;8.354;2023-04-03T06:11:01;2.00;99.90
16955;DHT22;8594;52.052;8.354;2023-04-03T06:13:28;2.20;99.90
16955;DHT22;8594;52.052;8.354;2023-04-03T06:15:56;2.10;99.90
16955;DHT22;8594;52.052;8.354;2023-04-03T06:18:23;2.10;99.90
16955;DHT22;8594;52.052;8.354;2023-04-03T06:20:50;2.10;99.90
16955;DHT22;8594;52.052;8.354;2023-04-03T06:23:17;2.10;99.90
16955;DHT22;8594;52.052;8.354;2023-04-03T06:25:45;2.20;99.90
16955;DHT22;8594;52.052;8.354;2023-04-03T06:28:12;2.00;99.90
16955;DHT22;8594;52.052;8.354;2023-04-03T06:30:39;2.30;99.90
16955;DHT22;8594;52.052;8.354;2023-04-03T06:33:06;2.80;99.90
16955;DHT22;8594;52.052;8.354;2023-04-03T06:35:34;3.50;99.90
16955;DHT22;8594;52.052;8.354;2023-04-03T06:38:02;3.90;99.90
16955;DHT22;8594;52.052;8.354;2023-04-03T06:40:29;4.30;99.90
16955;DHT22;8594;52.052;8.354;2023-04-03T06:42:58;4.70;99.90
16955;DHT22;8594;52.052;8.354;2023-04-03T06:45:25;5.10;99.90
16955;DHT22;8594;52.052;8.354;2023-04-03T06:47:53;5.20;99.90
16955;DHT22;8594;52.052;8.354;2023-04-03T06:50:20;5.70;99.90
16955;DHT22;8594;52.052;8.354;2023-04-03T06:52:47;6.10;99.90
16955;DHT22;8594;52.052;8.354;2023-04-03T06:55:14;6.50;99.90
16955;DHT22;8594;52.052;8.354;2023-04-03T06:57:41;6.70;99.90
16955;DHT22;8594;52.052;8.354;2023-04-03T07:00:11;6.70;99.90
16955;DHT22;8594;52.052;8.354;2023-04-03T07:02:38;6.60;99.90
16955;DHT22;8594;52.052;8.354;2023-04-03T07:05:06;6.50;99.90
16955;DHT22;8594;52.052;8.354;2023-04-03T07:07:34;6.70;99.90
16955;DHT22;8594;52.052;8.354;2023-04-03T07:10:01;7.00;99.90
16955;DHT22;8594;52.052;8.354;2023-04-03T07:12:28;7.00;99.90
16955;DHT22;8594;52.052;8.354;2023-04-03T07:14:55;7.30;99.90
16955;DHT22;8594;52.052;8.354;2023-04-03T07:17:23;7.60;99.90
16955;DHT22;8594;52.052;8.354;2023-04-03T07:19:50;7.90;99.90
16955;DHT22;8594;52.052;8.354;2023-04-03T07:22:17;8.10;99.90
16955;DHT22;8594;52.052;8.354;2023-04-03T07:24:44;8.10;99.90
16955;DHT22;8594;52.052;8.354;2023-04-03T07:27:11;8.00;99.90
16955;DHT22;8594;52.052;8.354;2023-04-03T07:29:39;8.10;99.90
16955;DHT22;8594;52.052;8.354;2023-04-03T07:32:06;8.30;99.90
16955;DHT22;8594;52.052;8.354;2023-04-03T07:34:34;7.20;99.90
16955;DHT22;8594;52.052;8.354;2023-04-03T07:37:01;7.70;99.90
16955;DHT22;8594;52.052;8.354;2023-04-03T07:39:30;7.80;99.90
16955;DHT22;8594;52.052;8.354;2023-04-03T07:41:57;7.50;99.90
16955;DHT22;8594;52.052;8.354;2023-04-03T07:44:23;7.60;99.90
16955;DHT22;8594;52.052;8.354;2023-04-03T07:46:51;8.10;99.90
16955;DHT22;8594;52.052;8.354;2023-04-03T07:49:18;8.30;99.90
16955;DHT22;8594;52.052;8.354;2023-04-03T07:51:46;8.40;99.90
16955;DHT22;8594;52.052;8.354;2023-04-03T07:54:13;8.70;99.90
16955;DHT22;8594;52.052;8.354;2023-04-03T07:56:41;9.10;99.90
16955;DHT22;8594;52.052;8.354;2023-04-03T07:59:09;9.20;99.90
16955;DHT22;8594;52.052;8.354;2023-04-03T08:01:36;9.30;99.90
16955;DHT22;8594;52.052;8.354;2023-04-03T08:04:03;9.20;99.90
16955;DHT22;8594;52.052;8.354;2023-04-03T08:06:32;8.80;99.90
16955;DHT22;8594;52.052;8.354;2023-04-03T08:09:02;9.40;99.90
16955;DHT22;8594;52.052;8.354;2023-04-03T08:11:30;9.30;99.90
16955;DHT22;8594;52.052;8.354;2023-04-03T08:13:57;9.50;99.90
16955;DHT22;8594;52.052;8.354;2023-04-03T08:16:24;9.80;99.90
16955;DHT22;8594;52.052;8.354;2023-04-03T08:18:53;9.60;99.90
16955;DHT22;8594;52.052;8.354;2023-04-03T08:21:21;9.70;99.90
16955;DHT22;8594;52.052;8.354;2023-04-03T08:23:49;9.60;99.90
16955;DHT22;8594;52.052;8.354;2023-04-03T08:26:19;9.70;99.90
16955;DHT22;8594;52.052;8.354;2023-04-03T08:28:47;9.80;99.90
16955;DHT22;8594;52.052;8.354;2023-04-03T08:31:17;9.60;99.90
16955;DHT22;8594;52.052;8.354;2023-04-03T08:33:45;9.80;99.90
16955;DHT22;8594;52.052;8.354;2023-04-03T08:36:20;9.70;99.70
16955;DHT22;8594;52.052;8.354;2023-04-03T08:38:49;9.40;98.50
16955;DHT22;8594;52.052;8.354;2023-04-03T08:41:24;9.60;99.90
16955;DHT22;8594;52.052;8.354;2023-04-03T08:44:02;9.70;99.90
16955;DHT22;8594;52.052;8.354;2023-04-03T08:46:46;9.50;99.90
16955;DHT22;8594;52.052;8.354;2023-04-03T08:49:31;10.00;99.90
16955;DHT22;8594;52.052;8.354;2023-04-03T08:52:03;9.20;99.90
16955;DHT22;8594;52.052;8.354;2023-04-03T08:54:45;9.40;99.90
16955;DHT22;8594;52.052;8.354;2023-04-03T08:57:20;9.20;99.90
16955;DHT22;8594;52.052;8.354;2023-04-03T08:59:59;9.30;99.90
16955;DHT22;8594;52.052;8.354;2023-04-03T09:02:32;9.50;99.90
16955;DHT22;8594;52.052;8.354;2023-04-03T09:05:05;9.40;99.90
16955;DHT22;8594;52.052;8.354;2023-04-03T09:07:42;9.30;99.90
16955;DHT22;8594;52.052;8.354;2023-04-03T09:10:13;9.20;99.90
16955;DHT22;8594;52.052;8.354;2023-04-03T09:12:44;9.10;99.90
16955;DHT22;8594;52.052;8.354;2023-04-03T09:15:19;9.30;99.70
16955;DHT22;8594;52.052;8.354;2023-04-03T09:17:57;9.10;99.90
16955;DHT22;8594;52.052;8.354;2023-04-03T09:20:38;9.00;99.90
16955;DHT22;8594;52.052;8.354;2023-04-03T09:23:17;8.70;99.90
16955;DHT22;8594;52.052;8.354;2023-04-03T09:25:49;8.70;99.90
16955;DHT22;8594;52.052;8.354;2023-04-03T09:28:21;9.10;99.90
16955;DHT22;8594;52.052;8.354;2023-04-03T09:30:48;9.00;99.90
16955;DHT22;8594;52.052;8.354;2023-04-03T09:33:15;8.90;99.90
16955;DHT22;8594;52.052;8.354;2023-04-03T09:35:43;9.20;99.90
16955;DHT22;8594;52.052;8.354;2023-04-03T09:38:17;9.70;99.90
16955;DHT22;8594;52.052;8.354;2023-04-03T09:40:47;10.00;99.30
16955;DHT22;8594;52.052;8.354;2023-04-03T09:43:24;10.50;99.00
16955;DHT22;8594;52.052;8.354;2023-04-03T09:45:56;10.40;99.10
16955;DHT22;8594;52.052;8.354;2023-04-03T09:48:50;10.40;98.60
16955;DHT22;8594;52.052;8.354;2023-04-03T09:51:18;10.30;98.80
16955;DHT22;8594;52.052;8.354;2023-04-03T09:53:45;10.50;97.50
16955;DHT22;8594;52.052;8.354;2023-04-03T09:56:20;10.00;97.10
16955;DHT22;8594;52.052;8.354;2023-04-03T09:59:06;9.50;98.30
16955;DHT22;8594;52.052;8.354;2023-04-03T10:01:42;9.50;98.70
16955;DHT22;8594;52.052;8.354;2023-04-03T10:04:12;9.70;99.00
16955;DHT22;8594;52.052;8.354;2023-04-03T10:06:43;9.90;98.80
16955;DHT22;8594;52.052;8.354;2023-04-03T10:09:19;9.90;98.70
16955;DHT22;8594;52.052;8.354;2023-04-03T10:12:02;9.30;99.40
16955;DHT22;8594;52.052;8.354;2023-04-03T10:14:33;9.60;99.70
16955;DHT22;8594;52.052;8.354;2023-04-03T10:17:15;9.70;98.60
16955;DHT22;8594;52.052;8.354;2023-04-03T10:19:48;9.70;98.90
16955;DHT22;8594;52.052;8.354;2023-04-03T10:22:23;9.80;98.80
16955;DHT22;8594;52.052;8.354;2023-04-03T10:25:03;10.30;98.70
16955;DHT22;8594;52.052;8.354;2023-04-03T10:27:48;10.60;97.30
16955;DHT22;8594;52.052;8.354;2023-04-03T10:30:33;10.10;97.30
16955;DHT22;8594;52.052;8.354;2023-04-03T10:33:20;9.60;98.60
16955;DHT22;8594;52.052;8.354;2023-04-03T10:36:06;9.10;98.70
16955;DHT22;8594;52.052;8.354;2023-04-03T10:38:46;8.70;99.70
16955;DHT22;8594;52.052;8.354;2023-04-03T10:41:29;8.60;99.00
16955;DHT22;8594;52.052;8.354;2023-04-03T10:44:13;8.40;98.20
16955;DHT22;8594;52.052;8.354;2023-04-03T10:46:48;8.00;99.20
16955;DHT22;8594;52.052;8.354;2023-04-03T10:49:29;7.70;99.70
16955;DHT22;8594;52.052;8.354;2023-04-03T10:52:10;7.60;99.90
16955;DHT22;8594;52.052;8.354;2023-04-03T10:54:46;7.70;99.90
16955;DHT22;8594;52.052;8.354;2023-04-03T10:57:23;8.00;99.90
16955;DHT22;8594;52.052;8.354;2023-04-03T10:59:54;8.10;99.80
16955;DHT22;8594;52.052;8.354;2023-04-03T11:02:27;8.20;99.40
16955;DHT22;8594;52.052;8.354;2023-04-03T11:05:00;8.10;99.70
16955;DHT22;8594;52.052;8.354;2023-04-03T11:07:32;8.20;99.70
16955;DHT22;8594;52.052;8.354;2023-04-03T11:10:11;8.10;99.90
16955;DHT22;8594;52.052;8.354;2023-04-03T11:12:44;8.70;99.80
16955;DHT22;8594;52.052;8.354;2023-04-03T11:15:18;8.60;99.00
16955;DHT22;8594;52.052;8.354;2023-04-03T11:17:51;8.50;99.70
16955;DHT22;8594;52.052;8.354;2023-04-03T11:20:24;8.20;99.80
16955;DHT22;8594;52.052;8.354;2023-04-03T11:23:01;8.20;99.70
16955;DHT22;8594;52.052;8.354;2023-04-03T11:25:33;7.90;99.90
16955;DHT22;8594;52.052;8.354;2023-04-03T11:28:04;7.90;99.90
16955;DHT22;8594;52.052;8.354;2023-04-03T11:30:44;7.90;99.90
16955;DHT22;8594;52.052;8.354;2023-04-03T11:36:13;8.60;99.90
16955;DHT22;8594;52.052;8.354;2023-04-03T11:38:47;9.20;99.30
16955;DHT22;8594;52.052;8.354;2023-04-03T11:41:26;9.00;98.70
16955;DHT22;8594;52.052;8.354;2023-04-03T11:43:58;9.10;99.10
16955;DHT22;8594;52.052;8.354;2023-04-03T11:46:50;8.80;98.70
16955;DHT22;8594;52.052;8.354;2023-04-03T11:49:58;8.80;99.90
16955;DHT22;8594;52.052;8.354;2023-04-03T11:52:55;8.60;99.90
16955;DHT22;8594;52.052;8.354;2023-04-03T11:55:55;8.50;99.90
16955;DHT22;8594;52.052;8.354;2023-04-03T11:58:24;8.10;99.90
16955;DHT22;8594;52.052;8.354;2023-04-03T12:01:01;8.10;99.90
16955;DHT22;8594;52.052;8.354;2023-04-03T12:07:11;8.20;99.90
16955;DHT22;8594;52.052;8.354;2023-04-03T12:10:14;8.50;99.90
16955;DHT22;8594;52.052;8.354;2023-04-03T12:12:56;8.70;99.90
16955;DHT22;8594;52.052;8.354;2023-04-03T12:15:54;8.70;99.90
16955;DHT22;8594;52.052;8.354;2023-04-03T12:18:56;8.60;99.90
16955;DHT22;8594;52.052;8.354;2023-04-03T12:24:42;8.70;99.90
16955;DHT22;8594;52.052;8.354;2023-04-03T12:27:25;8.60;99.90
16955;DHT22;8594;52.052;8.354;2023-04-03T12:30:24;8.20;99.90
16955;DHT22;8594;52.052;8.354;2023-04-03T12:33:04;8.40;99.90
16955;DHT22;8594;52.052;8.354;2023-04-03T12:35:49;8.70;99.90
16955;DHT22;8594;52.052;8.354;2023-04-03T12:38:55;9.00;99.90
16955;DHT22;8594;52.052;8.354;2023-04-03T12:41:36;9.50;99.90
16955;DHT22;8594;52.052;8.354;2023-04-03T12:44:19;9.80;98.80
16955;DHT22;8594;52.052;8.354;2023-04-03T12:46:53;9.70;99.60
16955;DHT22;8594;52.052;8.354;2023-04-03T12:49:33;9.60;99.30
16955;DHT22;8594;52.052;8.354;2023-04-03T12:52:18;9.50;99.40
16955;DHT22;8594;52.052;8.354;2023-04-03T12:54:50;9.70;99.10
16955;DHT22;8594;52.052;8.354;2023-04-03T12:57:20;9.40;97.50
16955;DHT22;8594;52.052;8.354;2023-04-03T12:59:50;9.80;98.10
16955;DHT22;8594;52.052;8.354;2023-04-03T13:02:23;9.80;97.10
16955;DHT22;8594;52.052;8.354;2023-04-03T13:04:53;9.90;96.80
16955;DHT22;8594;52.052;8.354;2023-04-03T13:07:25;9.70;98.80
16955;DHT22;8594;52.052;8.354;2023-04-03T13:10:14;9.20;98.30
16955;DHT22;8594;52.052;8.354;2023-04-03T13:12:46;9.40;98.50
16955;DHT22;8594;52.052;8.354;2023-04-03T13:15:17;9.40;98.30
16955;DHT22;8594;52.052;8.354;2023-04-03T13:17:46;9.60;98.10
16955;DHT22;8594;52.052;8.354;2023-04-03T13:20:19;9.20;98.00
16955;DHT22;8594;52.052;8.354;2023-04-03T13:22:52;9.10;97.80
16955;DHT22;8594;52.052;8.354;2023-04-03T13:25:27;9.30;98.30
16955;DHT22;8594;52.052;8.354;2023-04-03T13:27:57;9.30;97.20
16955;DHT22;8594;52.052;8.354;2023-04-03T13:30:30;9.50;97.60
16955;DHT22;8594;52.052;8.354;2023-04-03T13:33:01;9.60;98.10
16955;DHT22;8594;52.052;8.354;2023-04-03T13:35:36;9.30;97.20
16955;DHT22;8594;52.052;8.354;2023-04-03T13:38:07;8.80;98.40
16955;DHT22;8594;52.052;8.354;2023-04-03T13:40:51;8.70;98.60
16955;DHT22;8594;52.052;8.354;2023-04-03T13:43:23;8.70;98.20
16955;DHT22;8594;52.052;8.354;2023-04-03T13:46:20;9.20;99.40
16955;DHT22;8594;52.052;8.354;2023-04-03T13:48:52;9.40;98.40
16955;DHT22;8594;52.052;8.354;2023-04-03T13:51:23;9.30;97.80
16955;DHT22;8594;52.052;8.354;2023-04-03T13:53:53;9.30;97.50
16955;DHT22;8594;52.052;8.354;2023-04-03T13:56:27;9.00;98.50
16955;DHT22;8594;52.052;8.354;2023-04-03T13:59:05;9.10;97.80
16955;DHT22;8594;52.052;8.354;2023-04-03T14:01:50;9.30;98.30
16955;DHT22;8594;52.052;8.354;2023-04-03T14:04:22;9.30;98.10
16955;DHT22;8594;52.052;8.354;2023-04-03T14:06:51;9.50;98.10
16955;DHT22;8594;52.052;8.354;2023-04-03T14:09:19;9.70;97.70
16955;DHT22;8594;52.052;8.354;2023-04-03T14:11:50;9.70;97.40
16955;DHT22;8594;52.052;8.354;2023-04-03T14:14:21;10.00;97.30
16955;DHT22;8594;52.052;8.354;2023-04-03T14:16:52;10.10;96.80
16955;DHT22;8594;52.052;8.354;2023-04-03T14:19:23;9.80;96.30
16955;DHT22;8594;52.052;8.354;2023-04-03T14:21:52;9.60;96.80
16955;DHT22;8594;52.052;8.354;2023-04-03T14:24:22;9.20;96.70
16955;DHT22;8594;52.052;8.354;2023-04-03T14:26:52;8.90;97.40
16955;DHT22;8594;52.052;8.354;2023-04-03T14:29:22;8.80;97.60
16955;DHT22;8594;52.052;8.354;2023-04-03T14:31:50;9.00;97.30
16955;DHT22;8594;52.052;8.354;2023-04-03T14:34:17;9.00;97.40
16955;DHT22;8594;52.052;8.354;2023-04-03T14:36:45;8.90;97.80
16955;DHT22;8594;52.052;8.354;2023-04-03T14:39:17;8.90;97.50
16955;DHT22;8594;52.052;8.354;2023-04-03T14:41:45;8.90;97.50
16955;DHT22;8594;52.052;8.354;2023-04-03T14:44:14;9.10;96.90
16955;DHT22;8594;52.052;8.354;2023-04-03T14:46:43;8.80;97.20
16955;DHT22;8594;52.052;8.354;2023-04-03T14:49:14;8.70;96.80
16955;DHT22;8594;52.052;8.354;2023-04-03T14:51:44;9.00;97.30
16955;DHT22;8594;52.052;8.354;2023-04-03T14:54:14;9.10;97.30
16955;DHT22;8594;52.052;8.354;2023-04-03T14:56:43;9.00;97.10
16955;DHT22;8594;52.052;8.354;2023-04-03T14:59:12;9.00;96.70
16955;DHT22;8594;52.052;8.354;2023-04-03T15:01:43;8.70;96.70
16955;DHT22;8594;52.052;8.354;2023-04-03T15:04:11;8.70;97.30
16955;DHT22;8594;52.052;8.354;2023-04-03T15:06:40;8.70;97.50
16955;DHT22;8594;52.052;8.354;2023-04-03T15:09:14;8.70;97.90
16955;DHT22;8594;52.052;8.354;2023-04-03T15:11:46;8.90;97.80
16955;DHT22;8594;52.052;8.354;2023-04-03T15:14:15;8.70;97.50
16955;DHT22;8594;52.052;8.354;2023-04-03T15:16:43;8.90;97.90
16955;DHT22;8594;52.052;8.354;2023-04-03T15:19:11;9.10;97.10
16955;DHT22;8594;52.052;8.354;2023-04-03T15:21:38;9.10;96.80
16955;DHT22;8594;52.052;8.354;2023-04-03T15:24:05;9.00;96.60
16955;DHT22;8594;52.052;8.354;2023-04-03T15:26:33;8.90;96.80
16955;DHT22;8594;52.052;8.354;2023-04-03T15:29:00;8.70;96.80
16955;DHT22;8594;52.052;8.354;2023-04-03T15:31:28;8.80;96.50
16955;DHT22;8594;52.052;8.354;2023-04-03T15:33:55;8.90;96.70
16955;DHT22;8594;52.052;8.354;2023-04-03T15:36:22;8.90;97.20
16955;DHT22;8594;52.052;8.354;2023-04-03T15:38:49;9.00;97.70
16955;DHT22;8594;52.052;8.354;2023-04-03T15:41:16;9.00;96.80
16955;DHT22;8594;52.052;8.354;2023-04-03T15:43:43;8.90;96.60
16955;DHT22;8594;52.052;8.354;2023-04-03T15:46:10;8.70;97.00
16955;DHT22;8594;52.052;8.354;2023-04-03T15:48:40;8.80;97.30
16955;DHT22;8594;52.052;8.354;2023-04-03T15:51:07;8.50;97.00
16955;DHT22;8594;52.052;8.354;2023-04-03T15:53:34;8.50;97.40
16955;DHT22;8594;52.052;8.354;2023-04-03T15:56:00;8.40;97.60
16955;DHT22;8594;52.052;8.354;2023-04-03T15:58:27;8.50;97.50
16955;DHT22;8594;52.052;8.354;2023-04-03T16:00:54;8.60;97.30
16955;DHT22;8594;52.052;8.354;2023-04-03T16:03:21;8.70;97.70
16955;DHT22;8594;52.052;8.354;2023-04-03T16:05:51;8.60;97.80
16955;DHT22;8594;52.052;8.354;2023-04-03T16:08:18;8.70;98.10
16955;DHT22;8594;52.052;8.354;2023-04-03T16:10:46;8.70;97.80
16955;DHT22;8594;52.052;8.354;2023-04-03T16:13:13;8.60;97.80
16955;DHT22;8594;52.052;8.354;2023-04-03T16:15:41;8.50;97.90
16955;DHT22;8594;52.052;8.354;2023-04-03T16:18:08;8.60;97.40
16955;DHT22;8594;52.052;8.354;2023-04-03T16:20:36;8.50;97.20
16955;DHT22;8594;52.052;8.354;2023-04-03T16:23:04;8.40;97.30
16955;DHT22;8594;52.052;8.354;2023-04-03T16:25:31;8.50;97.50
16955;DHT22;8594;52.052;8.354;2023-04-03T16:27:58;8.50;97.70
16955;DHT22;8594;52.052;8.354;2023-04-03T16:30:25;8.50;97.80
16955;DHT22;8594;52.052;8.354;2023-04-03T16:32:53;8.50;97.90
16955;DHT22;8594;52.052;8.354;2023-04-03T16:35:21;8.60;97.80
16955;DHT22;8594;52.052;8.354;2023-04-03T16:37:48;8.60;97.80